sensor_id;sensor_type;location;lat;lon;timestamp;P1;durP1;ratioP1;P2;durP2;ratioP2
14169;SDS011;63889;50.596;8.690;2023-11-19T00:02:11;25.48;;;11.63;;
14169;SDS011;63889;50.596;8.690;2023-11-19T00:04:37;24.10;;;11.73;;
14169;SDS011;63889;50.596;8.690;2023-11-19T00:07:05;23.73;;;11.18;;
14169;SDS011;63889;50.596;8.690;2023-11-19T00:09:33;26.25;;;12.48;;
14169;SDS011;63889;50.596;8.690;2023-11-19T00:12:01;26.50;;;11.93;;
14169;SDS011;63889;50.596;8.690;2023-11-19T00:14:27;22.35;;;11.45;;
14169;SDS011;63889;50.596;8.690;2023-11-19T00:16:54;27.50;;;12.10;;
14169;SDS011;63889;50.596;8.690;2023-11-19T00:19:20;27.33;;;12.10;;
14169;SDS011;63889;50.596;8.690;2023-11-19T00:21:46;34.80;;;13.43;;
14169;SDS011;63889;50.596;8.690;2023-11-19T00:24:12;37.38;;;13.13;;
14169;SDS011;63889;50.596;8.690;2023-11-19T00:26:38;27.02;;;11.93;;
14169;SDS011;63889;50.596;8.690;2023-11-19T00:29:03;40.30;;;13.77;;
14169;SDS011;63889;50.596;8.690;2023-11-19T00:31:29;37.47;;;13.85;;
14169;SDS011;63889;50.596;8.690;2023-11-19T00:33:55;43.45;;;14.77;;
14169;SDS011;63889;50.596;8.690;2023-11-19T00:36:20;41.97;;;14.43;;
14169;SDS011;63889;50.596;8.690;2023-11-19T00:38:46;25.70;;;11.52;;
14169;SDS011;63889;50.596;8.690;2023-11-19T00:41:11;33.03;;;12.40;;
14169;SDS011;63889;50.596;8.690;2023-11-19T00:43:37;35.58;;;14.40;;
14169;SDS011;63889;50.596;8.690;2023-11-19T00:46:03;39.05;;;14.05;;
14169;SDS011;63889;50.596;8.690;2023-11-19T00:48:31;32.17;;;11.32;;
14169;SDS011;63889;50.596;8.690;2023-11-19T00:50:57;22.50;;;10.60;;
14169;SDS011;63889;50.596;8.690;2023-11-19T00:53:22;21.60;;;10.40;;
14169;SDS011;63889;50.596;8.690;2023-11-19T00:55:48;27.40;;;11.98;;
14169;SDS011;63889;50.596;8.690;2023-11-19T00:58:13;27.17;;;11.60;;
14169;SDS011;63889;50.596;8.690;2023-11-19T01:00:39;26.98;;;12.38;;
14169;SDS011;63889;50.596;8.690;2023-11-19T01:03:05;25.83;;;11.18;;
14169;SDS011;63889;50.596;8.690;2023-11-19T01:05:32;23.70;;;9.88;;
14169;SDS011;63889;50.596;8.690;2023-11-19T01:07:58;23.23;;;10.85;;
14169;SDS011;63889;50.596;8.690;2023-11-19T01:10:23;26.05;;;11.30;;
14169;SDS011;63889;50.596;8.690;2023-11-19T01:12:50;26.85;;;11.90;;
14169;SDS011;63889;50.596;8.690;2023-11-19T01:15:16;36.38;;;11.38;;
14169;SDS011;63889;50.596;8.690;2023-11-19T01:17:43;29.75;;;11.40;;
14169;SDS011;63889;50.596;8.690;2023-11-19T01:20:09;30.85;;;11.73;;
14169;SDS011;63889;50.596;8.690;2023-11-19T01:22:38;35.08;;;11.43;;
14169;SDS011;63889;50.596;8.690;2023-11-19T01:25:03;35.88;;;13.18;;
14169;SDS011;63889;50.596;8.690;2023-11-19T01:27:30;40.75;;;13.65;;
14169;SDS011;63889;50.596;8.690;2023-11-19T01:29:56;39.75;;;12.43;;
14169;SDS011;63889;50.596;8.690;2023-11-19T01:32:21;44.20;;;13.93;;
14169;SDS011;63889;50.596;8.690;2023-11-19T01:34:49;35.70;;;12.57;;
14169;SDS011;63889;50.596;8.690;2023-11-19T01:37:14;31.42;;;10.02;;
14169;SDS011;63889;50.596;8.690;2023-11-19T01:39:43;33.83;;;12.73;;
14169;SDS011;63889;50.596;8.690;2023-11-19T01:42:08;33.38;;;12.05;;
14169;SDS011;63889;50.596;8.690;2023-11-19T01:44:34;42.22;;;13.48;;
14169;SDS011;63889;50.596;8.690;2023-11-19T01:47:00;31.00;;;12.68;;
14169;SDS011;63889;50.596;8.690;2023-11-19T01:49:27;27.45;;;10.50;;
14169;SDS011;63889;50.596;8.690;2023-11-19T01:51:53;32.10;;;11.82;;
14169;SDS011;63889;50.596;8.690;2023-11-19T01:54:19;26.52;;;9.95;;
14169;SDS011;63889;50.596;8.690;2023-11-19T01:56:45;25.15;;;11.00;;
14169;SDS011;63889;50.596;8.690;2023-11-19T01:59:11;25.10;;;10.32;;
14169;SDS011;63889;50.596;8.690;2023-11-19T02:01:38;30.35;;;10.95;;
14169;SDS011;63889;50.596;8.690;2023-11-19T02:04:08;31.77;;;11.70;;
14169;SDS011;63889;50.596;8.690;2023-11-19T02:06:40;35.08;;;12.82;;
14169;SDS011;63889;50.596;8.690;2023-11-19T02:09:08;28.27;;;10.70;;
14169;SDS011;63889;50.596;8.690;2023-11-19T02:11:34;33.40;;;12.27;;
14169;SDS011;63889;50.596;8.690;2023-11-19T02:14:00;35.22;;;12.18;;
14169;SDS011;63889;50.596;8.690;2023-11-19T02:16:25;27.70;;;11.38;;
14169;SDS011;63889;50.596;8.690;2023-11-19T02:18:51;55.15;;;14.15;;
14169;SDS011;63889;50.596;8.690;2023-11-19T02:21:16;38.40;;;13.15;;
14169;SDS011;63889;50.596;8.690;2023-11-19T02:23:43;20.05;;;9.57;;
14169;SDS011;63889;50.596;8.690;2023-11-19T02:26:19;37.72;;;11.30;;
14169;SDS011;63889;50.596;8.690;2023-11-19T02:28:58;28.38;;;10.27;;
14169;SDS011;63889;50.596;8.690;2023-11-19T02:31:23;24.92;;;9.80;;
14169;SDS011;63889;50.596;8.690;2023-11-19T02:33:49;18.55;;;8.27;;
14169;SDS011;63889;50.596;8.690;2023-11-19T02:36:15;24.90;;;9.13;;
14169;SDS011;63889;50.596;8.690;2023-11-19T02:38:41;21.80;;;9.07;;
14169;SDS011;63889;50.596;8.690;2023-11-19T02:41:07;19.23;;;7.70;;
14169;SDS011;63889;50.596;8.690;2023-11-19T02:43:33;20.10;;;8.95;;
14169;SDS011;63889;50.596;8.690;2023-11-19T02:46:02;18.42;;;8.00;;
14169;SDS011;63889;50.596;8.690;2023-11-19T02:48:32;13.48;;;7.40;;
14169;SDS011;63889;50.596;8.690;2023-11-19T02:50:58;15.25;;;7.07;;
14169;SDS011;63889;50.596;8.690;2023-11-19T02:53:24;13.55;;;6.82;;
14169;SDS011;63889;50.596;8.690;2023-11-19T02:55:52;16.23;;;6.72;;
14169;SDS011;63889;50.596;8.690;2023-11-19T02:58:18;13.70;;;6.40;;
14169;SDS011;63889;50.596;8.690;2023-11-19T03:00:49;18.35;;;7.63;;
14169;SDS011;63889;50.596;8.690;2023-11-19T03:03:26;12.05;;;5.93;;
14169;SDS011;63889;50.596;8.690;2023-11-19T03:06:03;13.20;;;6.75;;
14169;SDS011;63889;50.596;8.690;2023-11-19T03:08:32;14.07;;;5.85;;
14169;SDS011;63889;50.596;8.690;2023-11-19T03:11:00;12.85;;;5.97;;
14169;SDS011;63889;50.596;8.690;2023-11-19T03:13:25;12.18;;;6.25;;
14169;SDS011;63889;50.596;8.690;2023-11-19T03:15:51;10.60;;;5.30;;
14169;SDS011;63889;50.596;8.690;2023-11-19T03:18:18;14.98;;;6.47;;
14169;SDS011;63889;50.596;8.690;2023-11-19T03:20:45;14.73;;;6.68;;
14169;SDS011;63889;50.596;8.690;2023-11-19T03:23:11;12.63;;;6.32;;
14169;SDS011;63889;50.596;8.690;2023-11-19T03:25:37;11.70;;;5.97;;
14169;SDS011;63889;50.596;8.690;2023-11-19T03:28:03;8.90;;;4.78;;
14169;SDS011;63889;50.596;8.690;2023-11-19T03:30:29;11.98;;;5.97;;
14169;SDS011;63889;50.596;8.690;2023-11-19T03:32:56;9.52;;;4.78;;
14169;SDS011;63889;50.596;8.690;2023-11-19T03:35:22;9.85;;;4.70;;
14169;SDS011;63889;50.596;8.690;2023-11-19T03:37:48;7.70;;;4.53;;
14169;SDS011;63889;50.596;8.690;2023-11-19T03:40:14;12.25;;;5.38;;
14169;SDS011;63889;50.596;8.690;2023-11-19T03:42:40;15.35;;;5.95;;
14169;SDS011;63889;50.596;8.690;2023-11-19T03:45:06;10.80;;;5.20;;
14169;SDS011;63889;50.596;8.690;2023-11-19T03:47:33;14.80;;;6.75;;
14169;SDS011;63889;50.596;8.690;2023-11-19T03:49:59;9.95;;;6.05;;
14169;SDS011;63889;50.596;8.690;2023-11-19T03:52:25;11.35;;;5.75;;
14169;SDS011;63889;50.596;8.690;2023-11-19T03:54:52;16.80;;;7.32;;
14169;SDS011;63889;50.596;8.690;2023-11-19T03:57:18;12.43;;;6.53;;
14169;SDS011;63889;50.596;8.690;2023-11-19T03:59:44;14.57;;;7.20;;
14169;SDS011;63889;50.596;8.690;2023-11-19T04:02:09;16.38;;;7.53;;
14169;SDS011;63889;50.596;8.690;2023-11-19T04:04:35;12.70;;;6.25;;
14169;SDS011;63889;50.596;8.690;2023-11-19T04:07:01;11.15;;;6.38;;
14169;SDS011;63889;50.596;8.690;2023-11-19T04:09:28;17.77;;;8.35;;
14169;SDS011;63889;50.596;8.690;2023-11-19T04:11:54;22.05;;;8.35;;
14169;SDS011;63889;50.596;8.690;2023-11-19T04:14:19;19.50;;;7.65;;
14169;SDS011;63889;50.596;8.690;2023-11-19T04:16:45;19.50;;;9.20;;
14169;SDS011;63889;50.596;8.690;2023-11-19T04:19:11;13.20;;;7.15;;
14169;SDS011;63889;50.596;8.690;2023-11-19T04:21:36;15.45;;;7.30;;
14169;SDS011;63889;50.596;8.690;2023-11-19T04:24:04;15.45;;;7.43;;
14169;SDS011;63889;50.596;8.690;2023-11-19T04:26:30;20.50;;;8.88;;
14169;SDS011;63889;50.596;8.690;2023-11-19T04:28:56;21.73;;;8.77;;
14169;SDS011;63889;50.596;8.690;2023-11-19T04:31:21;23.17;;;8.93;;
14169;SDS011;63889;50.596;8.690;2023-11-19T04:33:47;14.75;;;6.90;;
14169;SDS011;63889;50.596;8.690;2023-11-19T04:36:12;28.13;;;8.82;;
14169;SDS011;63889;50.596;8.690;2023-11-19T04:38:39;18.83;;;7.93;;
14169;SDS011;63889;50.596;8.690;2023-11-19T04:41:05;14.27;;;5.85;;
14169;SDS011;63889;50.596;8.690;2023-11-19T04:43:34;18.20;;;7.30;;
14169;SDS011;63889;50.596;8.690;2023-11-19T04:45:59;10.40;;;5.32;;
14169;SDS011;63889;50.596;8.690;2023-11-19T04:48:28;13.55;;;6.13;;
14169;SDS011;63889;50.596;8.690;2023-11-19T04:50:54;7.78;;;5.13;;
14169;SDS011;63889;50.596;8.690;2023-11-19T04:53:19;8.50;;;4.65;;
14169;SDS011;63889;50.596;8.690;2023-11-19T04:55:45;13.63;;;4.97;;
14169;SDS011;63889;50.596;8.690;2023-11-19T04:58:10;9.25;;;4.95;;
14169;SDS011;63889;50.596;8.690;2023-11-19T05:00:36;11.32;;;5.82;;
14169;SDS011;63889;50.596;8.690;2023-11-19T05:03:01;13.32;;;5.30;;
14169;SDS011;63889;50.596;8.690;2023-11-19T05:05:27;10.85;;;5.03;;
14169;SDS011;63889;50.596;8.690;2023-11-19T05:07:53;9.30;;;4.80;;
14169;SDS011;63889;50.596;8.690;2023-11-19T05:10:19;14.52;;;5.95;;
14169;SDS011;63889;50.596;8.690;2023-11-19T05:12:45;15.73;;;5.78;;
14169;SDS011;63889;50.596;8.690;2023-11-19T05:15:11;7.85;;;4.13;;
14169;SDS011;63889;50.596;8.690;2023-11-19T05:17:37;13.65;;;5.78;;
14169;SDS011;63889;50.596;8.690;2023-11-19T05:20:04;10.65;;;5.05;;
14169;SDS011;63889;50.596;8.690;2023-11-19T05:22:30;15.32;;;5.43;;
14169;SDS011;63889;50.596;8.690;2023-11-19T05:24:55;9.80;;;5.05;;
14169;SDS011;63889;50.596;8.690;2023-11-19T05:27:21;13.27;;;5.55;;
14169;SDS011;63889;50.596;8.690;2023-11-19T05:29:48;6.25;;;4.13;;
14169;SDS011;63889;50.596;8.690;2023-11-19T05:32:14;11.77;;;4.80;;
14169;SDS011;63889;50.596;8.690;2023-11-19T05:34:39;12.23;;;5.25;;
14169;SDS011;63889;50.596;8.690;2023-11-19T05:37:05;12.07;;;5.25;;
14169;SDS011;63889;50.596;8.690;2023-11-19T05:39:31;13.20;;;4.97;;
14169;SDS011;63889;50.596;8.690;2023-11-19T05:41:56;15.70;;;5.53;;
14169;SDS011;63889;50.596;8.690;2023-11-19T05:44:22;12.68;;;5.65;;
14169;SDS011;63889;50.596;8.690;2023-11-19T05:46:47;17.70;;;5.63;;
14169;SDS011;63889;50.596;8.690;2023-11-19T05:49:13;11.52;;;4.95;;
14169;SDS011;63889;50.596;8.690;2023-11-19T05:51:38;21.60;;;6.35;;
14169;SDS011;63889;50.596;8.690;2023-11-19T05:54:06;13.30;;;4.97;;
14169;SDS011;63889;50.596;8.690;2023-11-19T05:56:35;15.00;;;5.85;;
14169;SDS011;63889;50.596;8.690;2023-11-19T05:59:00;15.90;;;5.90;;
14169;SDS011;63889;50.596;8.690;2023-11-19T06:01:28;10.25;;;4.93;;
14169;SDS011;63889;50.596;8.690;2023-11-19T06:03:56;15.15;;;5.88;;
14169;SDS011;63889;50.596;8.690;2023-11-19T06:06:22;19.45;;;6.53;;
14169;SDS011;63889;50.596;8.690;2023-11-19T06:08:47;20.38;;;6.57;;
14169;SDS011;63889;50.596;8.690;2023-11-19T06:11:13;20.58;;;6.78;;
14169;SDS011;63889;50.596;8.690;2023-11-19T06:13:43;18.30;;;5.85;;
14169;SDS011;63889;50.596;8.690;2023-11-19T06:16:09;26.55;;;6.97;;
14169;SDS011;63889;50.596;8.690;2023-11-19T06:18:36;18.95;;;6.93;;
14169;SDS011;63889;50.596;8.690;2023-11-19T06:21:02;23.77;;;6.97;;
14169;SDS011;63889;50.596;8.690;2023-11-19T06:23:28;19.92;;;5.68;;
14169;SDS011;63889;50.596;8.690;2023-11-19T06:25:53;17.27;;;6.07;;
14169;SDS011;63889;50.596;8.690;2023-11-19T06:28:19;17.33;;;5.38;;
14169;SDS011;63889;50.596;8.690;2023-11-19T06:30:44;18.92;;;5.53;;
14169;SDS011;63889;50.596;8.690;2023-11-19T06:33:12;21.35;;;5.90;;
14169;SDS011;63889;50.596;8.690;2023-11-19T06:35:38;15.02;;;5.32;;
14169;SDS011;63889;50.596;8.690;2023-11-19T06:38:04;16.85;;;5.18;;
14169;SDS011;63889;50.596;8.690;2023-11-19T06:40:30;14.85;;;4.95;;
14169;SDS011;63889;50.596;8.690;2023-11-19T06:42:56;16.85;;;5.07;;
14169;SDS011;63889;50.596;8.690;2023-11-19T06:45:22;15.27;;;4.53;;
14169;SDS011;63889;50.596;8.690;2023-11-19T06:47:47;17.92;;;4.75;;
14169;SDS011;63889;50.596;8.690;2023-11-19T06:50:13;19.02;;;5.50;;
14169;SDS011;63889;50.596;8.690;2023-11-19T06:52:40;17.80;;;5.57;;
14169;SDS011;63889;50.596;8.690;2023-11-19T06:55:05;13.57;;;5.68;;
14169;SDS011;63889;50.596;8.690;2023-11-19T06:57:31;16.65;;;5.43;;
14169;SDS011;63889;50.596;8.690;2023-11-19T06:59:57;13.63;;;5.45;;
14169;SDS011;63889;50.596;8.690;2023-11-19T07:02:23;19.08;;;5.30;;
14169;SDS011;63889;50.596;8.690;2023-11-19T07:04:49;21.95;;;5.68;;
14169;SDS011;63889;50.596;8.690;2023-11-19T07:07:15;14.77;;;4.68;;
14169;SDS011;63889;50.596;8.690;2023-11-19T07:09:41;12.20;;;5.40;;
14169;SDS011;63889;50.596;8.690;2023-11-19T07:12:07;15.85;;;5.35;;
14169;SDS011;63889;50.596;8.690;2023-11-19T07:14:33;15.88;;;5.32;;
14169;SDS011;63889;50.596;8.690;2023-11-19T07:16:59;11.60;;;4.78;;
14169;SDS011;63889;50.596;8.690;2023-11-19T07:19:25;25.65;;;5.22;;
14169;SDS011;63889;50.596;8.690;2023-11-19T07:21:51;13.43;;;4.95;;
14169;SDS011;63889;50.596;8.690;2023-11-19T07:24:19;13.93;;;4.80;;
14169;SDS011;63889;50.596;8.690;2023-11-19T07:26:45;15.75;;;4.63;;
14169;SDS011;63889;50.596;8.690;2023-11-19T07:29:14;13.88;;;5.03;;
14169;SDS011;63889;50.596;8.690;2023-11-19T07:31:41;17.90;;;5.00;;
14169;SDS011;63889;50.596;8.690;2023-11-19T07:34:09;17.52;;;4.57;;
14169;SDS011;63889;50.596;8.690;2023-11-19T07:36:35;14.73;;;5.00;;
14169;SDS011;63889;50.596;8.690;2023-11-19T07:39:01;10.68;;;4.65;;
14169;SDS011;63889;50.596;8.690;2023-11-19T07:41:27;15.20;;;4.55;;
14169;SDS011;63889;50.596;8.690;2023-11-19T07:43:53;11.98;;;4.22;;
14169;SDS011;63889;50.596;8.690;2023-11-19T07:46:19;11.82;;;4.72;;
14169;SDS011;63889;50.596;8.690;2023-11-19T07:48:45;12.10;;;4.28;;
14169;SDS011;63889;50.596;8.690;2023-11-19T07:51:12;13.27;;;4.90;;
14169;SDS011;63889;50.596;8.690;2023-11-19T07:53:38;17.65;;;4.50;;
14169;SDS011;63889;50.596;8.690;2023-11-19T07:56:05;11.40;;;5.10;;
14169;SDS011;63889;50.596;8.690;2023-11-19T07:58:31;14.98;;;4.47;;
14169;SDS011;63889;50.596;8.690;2023-11-19T08:00:57;11.57;;;4.10;;
14169;SDS011;63889;50.596;8.690;2023-11-19T08:03:22;12.88;;;3.92;;
14169;SDS011;63889;50.596;8.690;2023-11-19T08:05:48;18.30;;;4.35;;
14169;SDS011;63889;50.596;8.690;2023-11-19T08:08:14;10.48;;;3.80;;
14169;SDS011;63889;50.596;8.690;2023-11-19T08:10:40;8.32;;;3.47;;
14169;SDS011;63889;50.596;8.690;2023-11-19T08:13:05;11.13;;;4.43;;
14169;SDS011;63889;50.596;8.690;2023-11-19T08:15:31;2.78;;;1.83;;
14169;SDS011;63889;50.596;8.690;2023-11-19T08:17:57;5.45;;;1.30;;
14169;SDS011;63889;50.596;8.690;2023-11-19T08:20:22;4.30;;;2.08;;
14169;SDS011;63889;50.596;8.690;2023-11-19T08:22:48;1.38;;;1.00;;
14169;SDS011;63889;50.596;8.690;2023-11-19T08:25:14;2.30;;;1.40;;
14169;SDS011;63889;50.596;8.690;2023-11-19T08:27:40;4.47;;;1.38;;
14169;SDS011;63889;50.596;8.690;2023-11-19T08:30:05;4.15;;;0.77;;
14169;SDS011;63889;50.596;8.690;2023-11-19T08:32:32;1.15;;;0.88;;
14169;SDS011;63889;50.596;8.690;2023-11-19T08:34:57;1.90;;;0.80;;
14169;SDS011;63889;50.596;8.690;2023-11-19T08:37:23;3.97;;;0.60;;
14169;SDS011;63889;50.596;8.690;2023-11-19T08:39:49;3.78;;;0.77;;
14169;SDS011;63889;50.596;8.690;2023-11-19T08:42:15;3.60;;;0.70;;
14169;SDS011;63889;50.596;8.690;2023-11-19T08:44:42;11.70;;;1.00;;
14169;SDS011;63889;50.596;8.690;2023-11-19T08:47:09;9.25;;;1.08;;
14169;SDS011;63889;50.596;8.690;2023-11-19T08:49:35;11.25;;;1.45;;
14169;SDS011;63889;50.596;8.690;2023-11-19T08:52:01;6.95;;;1.45;;
14169;SDS011;63889;50.596;8.690;2023-11-19T08:54:27;10.32;;;1.10;;
14169;SDS011;63889;50.596;8.690;2023-11-19T08:59:23;5.18;;;1.17;;
14169;SDS011;63889;50.596;8.690;2023-11-19T09:01:48;4.15;;;1.00;;
14169;SDS011;63889;50.596;8.690;2023-11-19T09:04:14;8.80;;;1.33;;
14169;SDS011;63889;50.596;8.690;2023-11-19T09:06:41;7.28;;;1.02;;
14169;SDS011;63889;50.596;8.690;2023-11-19T09:09:07;4.15;;;1.23;;
14169;SDS011;63889;50.596;8.690;2023-11-19T09:11:33;6.10;;;0.98;;
14169;SDS011;63889;50.596;8.690;2023-11-19T09:13:59;10.50;;;0.90;;
14169;SDS011;63889;50.596;8.690;2023-11-19T09:16:24;5.00;;;0.80;;
14169;SDS011;63889;50.596;8.690;2023-11-19T09:18:50;7.00;;;1.92;;
14169;SDS011;63889;50.596;8.690;2023-11-19T09:21:16;8.07;;;1.10;;
14169;SDS011;63889;50.596;8.690;2023-11-19T09:23:41;4.60;;;1.23;;
14169;SDS011;63889;50.596;8.690;2023-11-19T09:26:10;6.78;;;1.13;;
14169;SDS011;63889;50.596;8.690;2023-11-19T09:28:35;7.63;;;1.40;;
14169;SDS011;63889;50.596;8.690;2023-11-19T09:31:01;6.50;;;1.10;;
14169;SDS011;63889;50.596;8.690;2023-11-19T09:33:29;9.27;;;1.40;;
14169;SDS011;63889;50.596;8.690;2023-11-19T09:35:55;6.45;;;1.38;;
14169;SDS011;63889;50.596;8.690;2023-11-19T09:38:21;8.27;;;1.58;;
14169;SDS011;63889;50.596;8.690;2023-11-19T09:40:47;6.15;;;1.45;;
14169;SDS011;63889;50.596;8.690;2023-11-19T09:43:13;6.70;;;1.15;;
14169;SDS011;63889;50.596;8.690;2023-11-19T09:45:49;7.63;;;1.25;;
14169;SDS011;63889;50.596;8.690;2023-11-19T09:48:18;10.40;;;1.17;;
14169;SDS011;63889;50.596;8.690;2023-11-19T09:50:45;7.68;;;1.02;;
14169;SDS011;63889;50.596;8.690;2023-11-19T09:53:12;12.20;;;1.42;;
14169;SDS011;63889;50.596;8.690;2023-11-19T09:55:38;10.65;;;1.80;;
14169;SDS011;63889;50.596;8.690;2023-11-19T09:58:04;10.45;;;1.80;;
14169;SDS011;63889;50.596;8.690;2023-11-19T10:00:31;10.02;;;1.30;;
14169;SDS011;63889;50.596;8.690;2023-11-19T10:02:57;10.30;;;1.45;;
14169;SDS011;63889;50.596;8.690;2023-11-19T10:05:25;7.45;;;1.20;;
14169;SDS011;63889;50.596;8.690;2023-11-19T10:07:51;9.07;;;1.30;;
14169;SDS011;63889;50.596;8.690;2023-11-19T10:10:17;7.70;;;1.92;;
14169;SDS011;63889;50.596;8.690;2023-11-19T10:12:45;9.02;;;1.80;;
14169;SDS011;63889;50.596;8.690;2023-11-19T10:15:17;14.60;;;1.75;;
14169;SDS011;63889;50.596;8.690;2023-11-19T10:17:50;11.43;;;2.45;;
14169;SDS011;63889;50.596;8.690;2023-11-19T10:20:16;8.82;;;1.52;;
14169;SDS011;63889;50.596;8.690;2023-11-19T10:22:42;10.25;;;1.65;;
14169;SDS011;63889;50.596;8.690;2023-11-19T10:25:24;9.50;;;1.35;;
14169;SDS011;63889;50.596;8.690;2023-11-19T10:27:51;9.32;;;1.55;;
14169;SDS011;63889;50.596;8.690;2023-11-19T10:30:17;8.23;;;1.67;;
14169;SDS011;63889;50.596;8.690;2023-11-19T10:32:45;7.13;;;1.60;;
14169;SDS011;63889;50.596;8.690;2023-11-19T10:35:11;10.52;;;1.30;;
14169;SDS011;63889;50.596;8.690;2023-11-19T10:37:41;27.38;;;2.28;;
14169;SDS011;63889;50.596;8.690;2023-11-19T10:40:06;9.38;;;2.55;;
14169;SDS011;63889;50.596;8.690;2023-11-19T10:42:35;10.20;;;1.95;;
14169;SDS011;63889;50.596;8.690;2023-11-19T10:45:01;18.15;;;2.97;;
14169;SDS011;63889;50.596;8.690;2023-11-19T10:47:27;12.57;;;1.50;;
14169;SDS011;63889;50.596;8.690;2023-11-19T10:49:55;8.75;;;1.80;;
14169;SDS011;63889;50.596;8.690;2023-11-19T10:52:21;9.70;;;2.58;;
14169;SDS011;63889;50.596;8.690;2023-11-19T10:54:50;11.70;;;1.50;;
14169;SDS011;63889;50.596;8.690;2023-11-19T10:57:21;12.52;;;2.47;;
14169;SDS011;63889;50.596;8.690;2023-11-19T10:59:55;11.88;;;1.70;;
14169;SDS011;63889;50.596;8.690;2023-11-19T11:02:26;8.15;;;1.83;;
14169;SDS011;63889;50.596;8.690;2023-11-19T11:04:53;11.02;;;2.17;;
14169;SDS011;63889;50.596;8.690;2023-11-19T11:07:21;17.65;;;2.25;;
14169;SDS011;63889;50.596;8.690;2023-11-19T11:09:50;7.32;;;2.00;;
14169;SDS011;63889;50.596;8.690;2023-11-19T11:12:17;17.15;;;3.63;;
14169;SDS011;63889;50.596;8.690;2023-11-19T11:14:47;13.13;;;2.90;;
14169;SDS011;63889;50.596;8.690;2023-11-19T11:17:13;14.60;;;2.60;;
14169;SDS011;63889;50.596;8.690;2023-11-19T11:19:42;12.20;;;2.13;;
14169;SDS011;63889;50.596;8.690;2023-11-19T11:22:08;7.40;;;1.63;;
14169;SDS011;63889;50.596;8.690;2023-11-19T11:30:01;13.45;;;1.45;;
14169;SDS011;63889;50.596;8.690;2023-11-19T11:32:37;14.07;;;2.10;;
14169;SDS011;63889;50.596;8.690;2023-11-19T11:38:07;10.75;;;1.70;;
14169;SDS011;63889;50.596;8.690;2023-11-19T11:40:34;12.32;;;2.25;;
14169;SDS011;63889;50.596;8.690;2023-11-19T11:43:00;11.70;;;1.95;;
14169;SDS011;63889;50.596;8.690;2023-11-19T11:45:35;20.52;;;1.80;;
14169;SDS011;63889;50.596;8.690;2023-11-19T11:50:35;16.10;;;2.47;;
14169;SDS011;63889;50.596;8.690;2023-11-19T11:53:19;6.88;;;1.88;;
14169;SDS011;63889;50.596;8.690;2023-11-19T11:58:13;14.55;;;1.90;;
14169;SDS011;63889;50.596;8.690;2023-11-19T12:00:42;13.77;;;2.28;;
14169;SDS011;63889;50.596;8.690;2023-11-19T12:03:08;7.80;;;1.80;;
14169;SDS011;63889;50.596;8.690;2023-11-19T12:05:44;10.02;;;1.75;;
14169;SDS011;63889;50.596;8.690;2023-11-19T12:08:10;14.57;;;2.33;;
14169;SDS011;63889;50.596;8.690;2023-11-19T12:10:49;11.25;;;2.75;;
14169;SDS011;63889;50.596;8.690;2023-11-19T12:13:22;14.85;;;3.03;;
14169;SDS011;63889;50.596;8.690;2023-11-19T12:16:06;10.88;;;1.80;;
14169;SDS011;63889;50.596;8.690;2023-11-19T12:18:32;10.70;;;1.90;;
14169;SDS011;63889;50.596;8.690;2023-11-19T12:20:58;14.70;;;2.58;;
14169;SDS011;63889;50.596;8.690;2023-11-19T12:23:26;9.25;;;1.98;;
14169;SDS011;63889;50.596;8.690;2023-11-19T12:25:54;10.38;;;1.80;;
14169;SDS011;63889;50.596;8.690;2023-11-19T12:28:20;11.23;;;2.33;;
14169;SDS011;63889;50.596;8.690;2023-11-19T12:30:46;8.00;;;1.73;;
14169;SDS011;63889;50.596;8.690;2023-11-19T12:33:13;11.88;;;2.10;;
14169;SDS011;63889;50.596;8.690;2023-11-19T12:35:39;17.25;;;2.03;;
14169;SDS011;63889;50.596;8.690;2023-11-19T12:38:17;13.48;;;2.20;;
14169;SDS011;63889;50.596;8.690;2023-11-19T12:40:47;9.82;;;2.72;;
14169;SDS011;63889;50.596;8.690;2023-11-19T12:43:27;13.57;;;2.10;;
14169;SDS011;63889;50.596;8.690;2023-11-19T12:45:53;9.00;;;2.50;;
14169;SDS011;63889;50.596;8.690;2023-11-19T12:48:18;10.88;;;1.83;;
14169;SDS011;63889;50.596;8.690;2023-11-19T12:50:50;12.02;;;1.98;;
14169;SDS011;63889;50.596;8.690;2023-11-19T12:53:21;12.85;;;1.85;;
14169;SDS011;63889;50.596;8.690;2023-11-19T12:55:47;8.85;;;2.00;;
14169;SDS011;63889;50.596;8.690;2023-11-19T13:01:17;15.40;;;2.42;;
14169;SDS011;63889;50.596;8.690;2023-11-19T13:03:44;12.48;;;2.05;;
14169;SDS011;63889;50.596;8.690;2023-11-19T13:06:11;6.00;;;1.67;;
14169;SDS011;63889;50.596;8.690;2023-11-19T13:08:38;13.43;;;2.58;;
14169;SDS011;63889;50.596;8.690;2023-11-19T13:11:13;12.27;;;3.03;;
14169;SDS011;63889;50.596;8.690;2023-11-19T13:13:58;9.30;;;1.88;;
14169;SDS011;63889;50.596;8.690;2023-11-19T13:16:29;6.25;;;1.70;;
14169;SDS011;63889;50.596;8.690;2023-11-19T13:18:55;12.40;;;2.65;;
14169;SDS011;63889;50.596;8.690;2023-11-19T13:21:22;6.47;;;1.50;;
14169;SDS011;63889;50.596;8.690;2023-11-19T13:23:48;11.52;;;2.03;;
14169;SDS011;63889;50.596;8.690;2023-11-19T13:26:13;9.07;;;1.92;;
14169;SDS011;63889;50.596;8.690;2023-11-19T13:28:39;10.27;;;2.00;;
14169;SDS011;63889;50.596;8.690;2023-11-19T13:31:04;10.07;;;2.58;;
14169;SDS011;63889;50.596;8.690;2023-11-19T13:33:30;15.30;;;3.30;;
14169;SDS011;63889;50.596;8.690;2023-11-19T13:35:56;14.13;;;2.85;;
14169;SDS011;63889;50.596;8.690;2023-11-19T13:38:22;11.15;;;2.35;;
14169;SDS011;63889;50.596;8.690;2023-11-19T13:40:50;9.48;;;1.83;;
14169;SDS011;63889;50.596;8.690;2023-11-19T13:43:16;11.18;;;1.50;;
14169;SDS011;63889;50.596;8.690;2023-11-19T13:45:42;13.93;;;1.95;;
14169;SDS011;63889;50.596;8.690;2023-11-19T13:48:07;4.53;;;1.50;;
14169;SDS011;63889;50.596;8.690;2023-11-19T13:50:34;9.13;;;1.67;;
14169;SDS011;63889;50.596;8.690;2023-11-19T13:53:00;9.45;;;1.80;;
14169;SDS011;63889;50.596;8.690;2023-11-19T13:55:25;7.32;;;1.83;;
14169;SDS011;63889;50.596;8.690;2023-11-19T13:57:51;11.15;;;1.50;;
14169;SDS011;63889;50.596;8.690;2023-11-19T14:00:17;8.10;;;1.48;;
14169;SDS011;63889;50.596;8.690;2023-11-19T14:02:44;6.63;;;1.20;;
14169;SDS011;63889;50.596;8.690;2023-11-19T14:05:12;14.75;;;2.25;;
14169;SDS011;63889;50.596;8.690;2023-11-19T14:07:39;9.30;;;1.40;;
14169;SDS011;63889;50.596;8.690;2023-11-19T14:10:05;10.45;;;1.50;;
14169;SDS011;63889;50.596;8.690;2023-11-19T14:12:32;10.18;;;1.98;;
14169;SDS011;63889;50.596;8.690;2023-11-19T14:14:58;8.68;;;1.33;;
14169;SDS011;63889;50.596;8.690;2023-11-19T14:17:24;10.00;;;1.80;;
14169;SDS011;63889;50.596;8.690;2023-11-19T14:19:50;6.53;;;1.50;;
14169;SDS011;63889;50.596;8.690;2023-11-19T14:22:16;6.20;;;1.33;;
14169;SDS011;63889;50.596;8.690;2023-11-19T14:24:42;17.35;;;1.98;;
14169;SDS011;63889;50.596;8.690;2023-11-19T14:27:08;9.68;;;1.70;;
14169;SDS011;63889;50.596;8.690;2023-11-19T14:29:34;8.38;;;1.52;;
14169;SDS011;63889;50.596;8.690;2023-11-19T14:32:00;4.68;;;1.50;;
14169;SDS011;63889;50.596;8.690;2023-11-19T14:34:27;7.50;;;1.30;;
14169;SDS011;63889;50.596;8.690;2023-11-19T14:36:52;16.10;;;2.47;;
14169;SDS011;63889;50.596;8.690;2023-11-19T14:39:19;15.43;;;2.53;;
14169;SDS011;63889;50.596;8.690;2023-11-19T14:41:45;12.07;;;2.67;;
14169;SDS011;63889;50.596;8.690;2023-11-19T14:44:10;15.27;;;2.63;;
14169;SDS011;63889;50.596;8.690;2023-11-19T14:46:36;9.98;;;2.85;;
14169;SDS011;63889;50.596;8.690;2023-11-19T14:49:02;18.83;;;3.88;;
14169;SDS011;63889;50.596;8.690;2023-11-19T14:51:29;10.32;;;2.72;;
14169;SDS011;63889;50.596;8.690;2023-11-19T14:53:54;8.75;;;2.65;;